Latest Weather Observations for Mount Gellibrand

IDV60801

Issued at 9:52 am EST Monday 19 August 2019 (issued every 10 minutes, with the page automatically refreshed every 10 minutes)

About weather observations | Map of weather stations | Latest weather observations for VIC | Other Formats
Station Details ID: 090035 Name: MOUNT GELLIBRAND Lat: -38.23 Lon: 143.79 Height: 261.0 m
Data from the previous 72 hours. | See also: Recent months at Mount Gellibrand
Date/Time
EST
Temp
°C
App
Temp
°C
Dew
Point
°C
Rel
Hum
%
Delta-T
°C
Wind Press
QNH
hPa
Press
MSL
hPa
Rain since
9am
mm
Dir  Spd
km/h
Gust
km/h
Spd
kts
Gust
kts
19/09:30am 4.8 -2.4 4.8 100 0.0 W 32 37 17 20 1017.3 1017.6 0.0
19/09:00am 4.5 -2.4 4.5 100 0.0 WNW 30 37 16 20 1016.6 1016.9 8.8
19/08:30am 3.4 -4.3 3.4 100 0.0 WNW 33 41 18 22 1016.0 1016.3 8.8
19/08:00am 2.6 -4.3 2.6 100 0.0 WNW 28 37 15 20 1015.5 1015.9 8.8
19/07:30am 2.8 -5.8 2.8 100 0.0 WNW 37 46 20 25 1014.9 1015.3 8.6
19/07:00am 2.8 -4.8 2.8 100 0.0 W 32 41 17 22 1014.1 1014.4 8.4
19/06:30am 2.9 -5.3 2.9 100 0.0 WNW 35 41 19 22 1013.8 1014.1 8.2
19/06:00am 2.6 -5.6 2.6 100 0.0 WNW 35 46 19 25 1013.0 1013.3 7.8
19/05:30am 2.8 -5.8 2.8 100 0.0 WNW 37 44 20 24 1012.7 1013.0 7.8
19/05:00am 2.9 -4.9 2.9 100 0.0 WNW 33 43 18 23 1012.3 1012.6 7.6
19/04:46am 2.9 -6.8 2.9 100 0.0 WNW 43 50 23 27 1011.9 1012.2 7.6
19/04:30am 3.2 -7.0 3.2 100 0.0 W 46 56 25 30 1012.0 1012.3 7.6
19/04:00am 2.9 -6.4 2.9 100 0.0 WNW 41 50 22 27 1011.9 1012.2 7.2
19/03:30am 3.3 -4.8 3.3 100 0.0 WNW 35 43 19 23 1011.7 1012.1 6.6
19/03:00am 3.5 -3.6 3.5 100 0.0 W 30 41 16 22 1011.5 1011.9 6.6
19/02:30am 3.2 -4.9 3.2 100 0.0 W 35 50 19 27 1011.3 1011.6 6.4
19/02:12am 4.0 -6.4 4.0 100 0.0 W 48 70 26 38 1010.8 1011.1 5.8
19/02:00am 3.9 -5.6 3.9 100 0.0 WNW 43 57 23 31 1010.6 1010.9 5.8
19/01:30am 3.5 -4.9 3.5 100 0.0 W 37 44 20 24 1010.3 1010.6 5.8
19/01:00am 3.1 -6.7 3.1 100 0.0 WNW 44 57 24 31 1010.1 1010.4 5.8
19/12:50am 4.1 -5.4 4.1 100 0.0 WNW 43 57 23 31 1010.0 1010.3 5.8
19/12:30am 4.1 -2.9 4.1 100 0.0 W 30 37 16 20 1010.1 1010.4 5.8
19/12:00am 3.8 -3.3 3.8 100 0.0 WNW 30 37 16 20 1009.9 1010.2 5.8
 
Date/Time
EST
Temp
°C
App
Temp
°C
Dew
Point
°C
Rel
Hum
%
Delta-T
°C
Wind Press
QNH
hPa
Press
MSL
hPa
Rain since
9am
mm
Dir  Spd
km/h
Gust
km/h
Spd
kts
Gust
kts
18/11:30pm 3.5 -4.6 3.5 100 0.0 W 35 43 19 23 1009.2 1009.5 5.8
18/11:20pm 3.4 -7.9 3.4 100 0.0 WSW 52 85 28 46 1009.2 1009.5 5.8
18/11:10pm 4.4 -5.0 4.4 100 0.0 W 43 89 23 48 1008.7 1009.0 5.4
18/11:09pm 4.7 -3.9 4.7 100 0.0 W 39 89 21 48 1009.2 1009.5 5.4
18/11:00pm 4.7 -2.2 4.7 100 0.0 WNW 30 41 16 22 1009.1 1009.4 5.2
18/10:30pm 4.7 -2.6 4.7 100 0.0 W 32 43 17 23 1008.6 1008.9 5.0
18/10:07pm 5.2 -2.9 5.2 100 0.0 WSW 37 57 20 31 1008.2 1008.4 5.0
18/10:00pm 5.2 -3.3 5.2 100 0.0 WSW 39 48 21 26 1007.9 1008.1 5.0
18/09:39pm 4.4 -5.0 4.4 100 0.0 WSW 43 65 23 35 1007.6 1007.9 4.8
18/09:30pm 4.5 -6.2 4.5 100 0.0 WSW 50 67 27 36 1007.5 1007.8 4.6
18/09:15pm 5.0 -4.5 5.0 100 0.0 W 44 65 24 35 1007.5 1007.8 3.8
18/09:00pm 5.2 -5.4 5.2 100 0.0 W 50 63 27 34 1007.0 1007.3 3.6
18/08:55pm 5.3 -3.9 5.3 100 0.0 W 43 56 23 30 1007.0 1007.3 3.4
18/08:30pm 5.5 -5.0 5.5 100 0.0 WSW 50 65 27 35 1006.1 1006.4 3.4
18/08:05pm 5.2 -4.2 5.2 100 0.0 WSW 44 69 24 37 1005.3 1005.6 3.4
18/08:00pm 5.4 -5.1 5.4 100 0.0 WSW 50 69 27 37 1005.4 1005.7 3.2
18/07:57pm 5.5 -5.4 5.5 100 0.0 WSW 52 69 28 37 1005.2 1005.5 3.0
18/07:30pm 5.5 -8.2 5.5 100 0.0 WSW 67 91 36 49 1003.1 1003.4 3.0
18/07:25pm 5.5 -7.5 5.5 100 0.0 WSW 63 87 34 47 1003.0 1003.3 3.0
18/07:20pm 5.7 -6.1 5.7 100 0.0 W 57 80 31 43 1003.0 1003.3 2.8
18/07:09pm 5.8 -6.0 5.8 100 0.0 WNW 57 80 31 43 1002.9 1003.2 2.6
18/07:00pm 5.9 -5.9 5.9 100 0.0 WNW 57 67 31 36 1002.9 1003.2 2.0
18/06:38pm 6.7 -4.9 6.7 100 0.0 WNW 57 76 31 41 1001.9 1002.2 1.2
18/06:30pm 6.8 -4.8 6.8 100 0.0 NW 57 70 31 38 1002.1 1002.4 1.2
18/06:17pm 6.9 -6.2 6.9 100 0.0 NW 65 85 35 46 1001.9 1002.2 1.2
18/06:08pm 7.5 -3.3 7.5 100 0.0 NW 54 83 29 45 1001.1 1001.3 1.2
18/06:07pm 7.6 -2.5 7.6 100 0.0 NW 50 83 27 45 1001.4 1001.6 1.2
18/06:00pm 7.8 -1.4 7.8 100 0.0 NW 46 59 25 32 1002.0 1002.3 1.2
18/05:30pm 8.8 -1.0 7.1 89 0.8 NW 48 74 26 40 1001.3 1001.5 0.8
18/05:00pm 9.0 -0.4 7.3 89 0.8 NNW 46 56 25 30 1001.6 1001.8 0.8
18/04:30pm 9.5 -1.9 6.9 84 1.2 NNW 56 70 30 38 1000.9 1001.1 0.8
18/04:00pm 11.0 3.2 9.8 92 0.6 NNW 41 52 22 28 1001.1 1001.3 0.8
18/03:30pm 11.0 2.0 8.8 86 1.1 NNW 46 56 25 30 1001.1 1001.3 0.8
18/03:00pm 9.8 0.6 8.2 90 0.8 NNW 46 56 25 30 1001.3 1001.5 0.8
18/02:30pm 9.6 1.2 9.0 96 0.3 NNW 43 52 23 28 1001.5 1001.7 0.8
18/02:00pm 9.4 1.1 9.4 100 0.0 N 43 50 23 27 1001.8 1002.0 0.8
18/01:30pm 9.4 1.1 9.4 100 0.0 N 43 50 23 27 1002.4 1002.7 0.8
18/01:00pm 9.3 1.8 9.3 100 0.0 N 39 46 21 25 1002.5 1002.8 0.8
18/12:30pm 9.6 3.3 9.0 96 0.3 NNW 32 41 17 22 1003.6 1003.9 0.2
18/12:00pm 10.4 3.9 8.0 85 1.2 NNW 32 37 17 20 1004.3 1004.5 0.0
18/11:30am 10.8 3.5 7.3 79 1.7 NNW 35 43 19 23 1004.7 1004.9 0.0
18/11:00am 11.3 2.4 7.0 75 2.1 NNW 43 52 23 28 1005.1 1005.4 0.0
18/10:30am 12.3 2.1 6.8 69 2.7 NNW 50 59 27 32 1004.6 1004.8 0.0
18/10:00am 12.1 1.4 6.6 69 2.7 NNW 52 65 28 35 1004.9 1005.1 0.0
18/09:30am 11.8 2.8 6.5 70 2.5 NNW 43 54 23 29 1005.2 1005.5 0.0
18/09:00am 11.9 2.6 5.8 66 2.9 NNW 44 56 24 30 1005.3 1005.6 0.0
18/08:30am 12.1 4.5 5.7 65 3.0 N 35 44 19 24 1005.4 1005.7 0.0
18/08:00am 11.4 4.0 5.1 65 2.9 NNW 33 41 18 22 1005.6 1005.9 0.0
18/07:30am 10.7 5.0 4.8 67 2.7 NNE 24 30 13 16 1005.4 1005.7 0.0
18/07:00am 10.5 4.4 4.9 68 2.6 NNE 26 35 14 19 1005.3 1005.6 0.0
18/06:30am 11.3 4.7 4.3 62 3.2 NNE 28 39 15 21 1006.0 1006.3 0.0
18/06:00am 11.2 6.2 4.4 63 3.1 NNE 20 30 11 16 1006.9 1007.2 0.0
18/05:30am 10.3 4.5 4.5 67 2.6 NNE 24 35 13 19 1006.5 1006.8 0.0
18/05:00am 10.3 4.0 4.0 65 2.8 NNE 26 33 14 18 1007.1 1007.4 0.0
18/04:30am 9.9 3.3 4.3 68 2.5 NNE 28 35 15 19 1007.6 1007.9 0.0
18/04:00am 9.8 2.3 4.4 69 2.4 N 33 41 18 22 1008.0 1008.2 0.0
18/03:30am 9.5 2.6 4.7 72 2.2 N 30 37 16 20 1008.6 1008.9 0.0
18/03:00am 9.8 5.0 4.6 70 2.4 N 19 24 10 13 1009.5 1009.8 0.0
18/02:30am 9.8 5.0 4.8 71 2.3 N 19 24 10 13 1010.2 1010.5 0.0
18/02:00am 9.1 4.4 5.1 76 1.8 N 19 22 10 12 1010.8 1011.1 0.0
18/01:30am 8.2 3.6 5.8 85 1.1 NNE 19 24 10 13 1010.8 1011.1 0.0
18/01:00am 8.3 3.5 5.8 84 1.2 NNE 20 22 11 12 1011.3 1011.6 0.0
18/12:30am 7.4 4.1 6.2 92 0.6 ENE 13 15 7 8 1011.9 1012.2 0.0
18/12:00am 7.6 5.0 6.2 91 0.6 NNE 9 9 5 5 1012.8 1013.1 0.0
 
Date/Time
EST
Temp
°C
App
Temp
°C
Dew
Point
°C
Rel
Hum
%
Delta-T
°C
Wind Press
QNH
hPa
Press
MSL
hPa
Rain since
9am
mm
Dir  Spd
km/h
Gust
km/h
Spd
kts
Gust
kts
17/11:30pm 7.4 4.0 6.0 91 0.6 N 13 17 7 9 1013.4 1013.7 0.0
17/11:00pm 7.3 2.6 6.2 93 0.5 NNE 20 22 11 12 1013.7 1014.0 0.0
17/10:30pm 7.0 1.8 5.6 91 0.6 NNE 22 24 12 13 1013.3 1013.6 0.0
17/10:00pm 7.7 1.3 5.3 85 1.1 NNE 28 32 15 17 1013.8 1014.1 0.0
17/09:30pm 8.1 2.2 5.6 84 1.1 NNE 26 30 14 16 1014.3 1014.6 0.0
17/09:00pm 8.1 1.8 5.6 84 1.1 N 28 33 15 18 1014.5 1014.8 0.0
17/08:30pm 8.1 2.4 6.6 90 0.7 NNE 26 30 14 16 1015.0 1015.4 0.0
17/08:00pm 7.9 2.7 7.1 95 0.4 NNE 24 28 13 15 1015.4 1015.8 0.0
17/07:30pm 7.6 2.3 6.9 95 0.3 NE 24 28 13 15 1015.2 1015.6 0.0
17/07:00pm 8.1 3.6 6.9 92 0.6 NE 20 24 11 13 1015.6 1016.0 0.0
17/06:30pm 8.3 3.7 6.6 89 0.8 ENE 20 24 11 13 1015.6 1016.0 0.0
17/06:00pm 8.5 4.0 7.0 90 0.7 E 20 22 11 12 1015.1 1015.5 0.0
17/05:30pm 9.3 5.0 7.1 86 1.1 ENE 19 22 10 12 1015.5 1015.9 0.0
17/05:00pm 10.1 5.7 7.2 82 1.4 ENE 20 24 11 13 1015.9 1016.2 0.0
17/04:30pm 11.1 6.9 7.6 79 1.7 ENE 19 24 10 13 1016.0 1016.3 0.0
17/04:00pm 11.6 7.6 6.7 72 2.4 ENE 17 20 9 11 1016.3 1016.6 0.0
17/03:30pm 11.7 7.7 6.6 71 2.5 ENE 17 20 9 11 1016.6 1016.9 0.0
17/03:00pm 11.7 7.1 6.6 71 2.4 NE 20 28 11 15 1016.5 1016.8 0.0
17/02:30pm 11.7 7.2 7.0 73 2.3 ENE 20 28 11 15 1016.7 1017.0 0.0
17/02:00pm 11.3 6.3 6.4 72 2.3 NE 22 28 12 15 1017.2 1017.5 0.0
17/01:30pm 11.3 6.8 6.8 74 2.2 NE 20 28 11 15 1017.8 1018.1 0.0
17/01:00pm 11.0 5.7 6.6 74 2.1 ENE 24 30 13 16 1018.3 1018.7 0.0
17/12:30pm 10.9 6.0 7.0 77 1.9 NE 22 33 12 18 1018.8 1019.2 0.0
17/12:00pm 10.3 5.0 6.6 78 1.8 NE 24 30 13 16 1019.4 1019.8 0.0
17/11:30am 9.7 4.2 5.9 77 1.8 NE 24 30 13 16 1020.1 1020.4 0.0
17/11:00am 10.3 5.8 7.0 80 1.6 NE 20 28 11 15 1020.4 1020.7 0.0
17/10:30am 9.3 5.7 6.7 84 1.2 NE 15 20 8 11 1020.7 1021.0 0.0
17/10:00am 9.2 6.4 7.0 86 1.0 ENE 11 13 6 7 1020.9 1021.2 0.0
17/09:30am 9.2 7.3 6.6 84 1.2 ENE 6 9 3 5 1021.2 1021.6 0.0
17/09:00am 8.8 6.6 6.1 83 1.3 ENE 7 9 4 5 1021.3 1021.7 2.0
17/08:30am 7.2 5.0 5.5 89 0.8 ESE 6 11 3 6 1021.2 1021.6 2.0
17/08:00am 6.5 4.3 3.3 80 1.4 ESE 4 11 2 6 1021.2 1021.6 2.0
17/07:30am 6.9 4.4 3.9 81 1.3 SSE 6 7 3 4 1020.7 1021.0 2.0
17/07:00am 7.0 4.6 4.5 84 1.1 SE 6 7 3 4 1020.6 1020.9 1.8
17/06:30am 6.3 4.2 5.6 95 0.3 S 6 9 3 5 1020.5 1020.8 1.8
17/06:00am 6.9 5.5 5.5 91 0.6 SSW 2 4 1 2 1020.5 1020.8 1.8
17/05:30am 7.3 5.8 6.7 96 0.3 SSW 4 6 2 3 1020.2 1020.5 1.8
17/05:00am 6.8 4.9 6.8 100 0.0 SSW 6 6 3 3 1020.2 1020.5 1.8
17/04:30am 6.5 4.4 6.5 100 0.0 WSW 7 11 4 6 1020.3 1020.6 1.8
17/04:00am 6.1 3.9 6.1 100 0.0 W 7 9 4 5 1020.3 1020.6 1.8
17/03:30am 6.6 4.7 6.6 100 0.0 W 6 6 3 3 1020.3 1020.6 1.8
17/03:00am 6.4 4.4 6.4 100 0.0 W 6 9 3 5 1020.3 1020.6 1.8
17/02:30am 6.5 4.6 6.5 100 0.0 W 6 11 3 6 1020.5 1020.8 1.8
17/02:00am 6.8 4.9 6.8 100 0.0 SW 6 7 3 4 1020.6 1020.9 1.8
17/01:30am 6.0 3.4 6.0 100 0.0 WSW 9 11 5 6 1020.6 1020.9 1.8
17/01:00am 5.5 2.8 5.5 100 0.0 W 9 11 5 6 1020.4 1020.7 1.8
17/12:30am 5.5 2.8 5.5 100 0.0 W 9 9 5 5 1020.4 1020.7 1.8
17/12:00am 5.0 2.2 5.0 100 0.0 W 9 11 5 6 1020.5 1020.8 1.8
 
Date/Time
EST
Temp
°C
App
Temp
°C
Dew
Point
°C
Rel
Hum
%
Delta-T
°C
Wind Press
QNH
hPa
Press
MSL
hPa
Rain since
9am
mm
Dir  Spd
km/h
Gust
km/h
Spd
kts
Gust
kts
16/11:30pm 5.0 2.2 5.0 100 0.0 WNW 9 11 5 6 1020.5 1020.8 1.8
16/11:00pm 4.9 1.7 4.9 100 0.0 WNW 11 11 6 6 1020.4 1020.7 1.8
16/10:30pm 4.9 2.4 4.9 100 0.0 WNW 7 9 4 5 1020.4 1020.7 1.8
16/10:00pm 6.5 2.8 6.5 100 0.0 SSW 15 19 8 10 1019.7 1020.1 1.8
16/09:30pm 5.8 2.4 5.8 100 0.0 WSW 13 19 7 10 1019.9 1020.2 1.8
16/09:00pm 5.8 2.0 5.8 100 0.0 WSW 15 17 8 9 1019.5 1019.9 1.6
16/08:30pm 6.3 2.2 6.3 100 0.0 WSW 17 22 9 12 1019.2 1019.6 1.6
16/08:00pm 6.4 2.3 6.4 100 0.0 SW 17 20 9 11 1019.0 1019.4 1.6
16/07:30pm 6.5 1.5 6.5 100 0.0 WSW 22 26 12 14 1018.7 1019.1 1.6
16/07:00pm 6.7 1.8 6.7 100 0.0 WSW 22 28 12 15 1018.1 1018.5 1.6
16/06:30pm 6.8 2.3 6.8 100 0.0 WSW 20 24 11 13 1017.8 1018.1 1.6
16/06:00pm 7.4 3.0 7.4 100 0.0 WSW 20 24 11 13 1017.4 1017.7 1.6
16/05:30pm 7.9 3.5 7.6 98 0.1 WSW 20 26 11 14 1016.9 1017.2 1.6
16/05:00pm 8.9 4.0 8.5 97 0.2 SW 24 33 13 18 1016.2 1016.5 1.6
16/04:30pm 8.7 3.8 8.4 98 0.1 SW 24 39 13 21 1015.7 1016.1 1.6
16/04:00pm 9.5 2.4 8.1 91 0.7 SW 35 44 19 24 1015.0 1015.4 1.6
16/03:30pm 10.1 3.4 9.5 96 0.3 WSW 35 43 19 23 1014.6 1014.9 1.6
16/03:00pm 9.8 2.5 8.9 94 0.4 SW 37 54 20 29 1014.0 1014.3 1.6
16/02:30pm 10.3 2.5 9.7 96 0.3 WSW 41 50 22 27 1013.6 1013.9 1.6
16/02:00pm 9.6 2.5 9.6 100 0.0 WSW 37 48 20 26 1013.2 1013.5 1.6
16/01:30pm 9.8 3.1 9.8 100 0.0 SW 35 44 19 24 1013.0 1013.3 1.6
16/01:00pm 10.7 4.7 10.7 100 0.0 WSW 33 39 18 21 1012.9 1013.2 1.6
16/12:30pm 9.5 2.8 9.5 100 0.0 WSW 35 46 19 25 1012.8 1013.1 1.6
16/12:00pm 9.1 2.8 9.1 100 0.0 W 32 39 17 21 1012.8 1013.1 1.6
16/11:30am 8.9 1.3 8.9 100 0.0 WNW 39 50 21 27 1012.3 1012.6 1.4
16/11:00am 8.6 0.1 8.6 100 0.0 WNW 43 50 23 27 1012.1 1012.4 0.4
16/10:30am 10.7 2.5 6.5 75 2.0 WNW 39 52 21 28 1011.4 1011.7 0.0
16/10:00am 11.1 2.6 5.0 66 2.8 NW 39 46 21 25 1010.9 1011.2 0.0

Other formats

Comma delimited format used in spreadsheet applications
http://www.bom.gov.au/fwo/IDV60801/IDV60801.95845.axf

JavaScript Object Notation format (JSON) in row-major order
http://www.bom.gov.au/fwo/IDV60801/IDV60801.95845.json

Data quality

Most of these data are generated automatically and are frequently updated. Quality checks on data are not normally performed. It is possible for incorrect values to appear. Refer to information at About Latest Weather Observations and please check the disclaimer before using these data.